Abshers, North Carolina
Current Conditions -  °F | °C
As of 2:15 PM on Sunday 23 Nov 2014 (Local Time) from KUKF Reporting Station
Drizzle Drizzle  
Wind Chill:   Ceiling: 1500
Heat Index:   Visibility: 5mi
Dew Point:   Wind: 0mph
Humidity: 100%   Direction: NA
Pressure: 30.1"   Gusts: NA
Location:  36.345°N, 81.0285°W
Report Text: KUKF 231915Z AUTO 00000KT 5SM DZ SCT003 OVC015 05/05 A3010 RMK AO2 P0001
Loading
Personal Weather Stations






























Interactive Weather Map New forecast layout! Learn more

10-Day Weather Forecast

Advertisements
Track Severe Weather on mobile